createdAt,value
2018-10-06T00:00:15.980Z,218.63
2018-10-06T00:02:44.588Z,220.75
2018-10-06T00:05:13.448Z,214.15
2018-10-06T00:07:42.333Z,210.10
2018-10-06T00:10:11.068Z,217.95
2018-10-06T00:12:40.026Z,207.25
2018-10-06T00:15:08.916Z,207.35
2018-10-06T00:17:37.748Z,219.62
2018-10-06T00:20:06.952Z,206.53
2018-10-06T00:22:35.840Z,214.20
2018-10-06T00:25:05.365Z,205.27
2018-10-06T00:27:34.023Z,216.53
2018-10-06T00:30:03.021Z,215.90
2018-10-06T00:32:31.718Z,206.15
2018-10-06T00:35:01.068Z,210.90
2018-10-06T00:37:29.807Z,215.32
2018-10-06T00:39:58.758Z,214.08
2018-10-06T00:42:27.652Z,214.38
2018-10-06T00:44:56.357Z,210.45
2018-10-06T00:47:25.236Z,207.03
2018-10-06T00:49:54.032Z,217.10
2018-10-06T00:52:23.280Z,217.13
2018-10-06T00:54:52.049Z,214.75
2018-10-06T00:57:20.849Z,209.50
2018-10-06T00:59:49.477Z,214.10
2018-10-06T01:02:18.514Z,205.83
2018-10-06T01:04:53.365Z,218.22
2018-10-06T01:07:23.339Z,206.32
2018-10-06T01:09:52.298Z,206.80
2018-10-06T01:12:21.836Z,211.62
2018-10-06T01:14:50.500Z,217.25
2018-10-06T01:17:19.199Z,207.80
2018-10-06T01:19:48.263Z,209.80
2018-10-06T01:22:17.056Z,206.47
2018-10-06T01:24:45.854Z,218.00
2018-10-06T01:27:15.423Z,214.42
2018-10-06T01:29:45.014Z,211.70
2018-10-06T01:32:13.767Z,210.57
2018-10-06T01:34:42.728Z,209.27
2018-10-06T01:37:11.415Z,211.12
2018-10-06T01:39:40.477Z,214.45
2018-10-06T01:42:09.039Z,213.80
2018-10-06T01:44:38.616Z,216.40
2018-10-06T01:47:07.124Z,225.60
2018-10-06T01:49:35.982Z,224.27
2018-10-06T01:52:04.628Z,218.63
2018-10-06T01:54:33.560Z,223.95
2018-10-06T01:57:02.508Z,217.82
2018-10-06T01:59:31.486Z,220.17
2018-10-06T02:02:00.204Z,212.32
2018-10-06T02:04:28.889Z,225.10
2018-10-06T02:06:58.187Z,215.52
2018-10-06T02:09:27.451Z,289.17
2018-10-06T02:11:56.324Z,216.90
2018-10-06T02:14:25.189Z,226.05
2018-10-06T02:16:54.344Z,212.48
2018-10-06T02:19:23.119Z,210.17
2018-10-06T02:21:51.750Z,222.02
2018-10-06T02:24:20.474Z,225.72
2018-10-06T02:26:49.170Z,216.85
2018-10-06T02:29:18.058Z,230.03
2018-10-06T02:31:46.747Z,231.43
2018-10-06T02:34:15.499Z,229.85
2018-10-06T02:36:44.403Z,220.27
2018-10-06T02:39:13.215Z,224.40
2018-10-06T02:41:41.917Z,228.12
2018-10-06T02:44:10.598Z,220.80
2018-10-06T02:46:39.387Z,233.47
2018-10-06T02:49:08.094Z,225.82
2018-10-06T02:51:37.078Z,217.62
2018-10-06T02:54:06.443Z,235.72
2018-10-06T02:56:35.374Z,228.52
2018-10-06T02:59:04.077Z,230.65
2018-10-06T03:01:33.377Z,218.57
2018-10-06T03:04:02.516Z,222.80
2018-10-06T03:06:31.225Z,222.05
2018-10-06T03:08:59.945Z,216.53
2018-10-06T03:11:28.928Z,233.28
2018-10-06T03:13:57.816Z,228.90
2018-10-06T03:16:26.696Z,216.55
2018-10-06T03:18:55.278Z,222.70
2018-10-06T03:21:24.111Z,220.00
2018-10-06T03:23:53.043Z,220.90
2018-10-06T03:26:22.140Z,225.85
2018-10-06T03:28:51.543Z,218.95
2018-10-06T03:31:20.380Z,219.80
2018-10-06T03:33:49.229Z,221.35
2018-10-06T03:36:18.053Z,223.97
2018-10-06T03:38:46.759Z,225.32
2018-10-06T03:41:15.701Z,219.37
2018-10-06T03:43:44.421Z,232.77
2018-10-06T03:46:13.590Z,219.97
2018-10-06T03:48:42.458Z,215.35
2018-10-06T03:51:11.223Z,226.73
2018-10-06T03:53:40.308Z,221.70
2018-10-06T03:56:08.951Z,237.17
2018-10-06T03:58:37.831Z,229.23
2018-10-06T04:01:06.672Z,227.20
2018-10-06T04:03:35.320Z,214.50
2018-10-06T04:06:04.242Z,216.80
2018-10-06T04:08:32.860Z,219.43
2018-10-06T04:11:02.118Z,217.28
2018-10-06T04:13:31.098Z,227.22
2018-10-06T04:15:59.938Z,223.38
2018-10-06T04:18:28.796Z,223.13
2018-10-06T04:20:57.746Z,222.35
2018-10-06T04:23:26.387Z,224.52
2018-10-06T04:25:55.329Z,222.65
2018-10-06T04:28:24.176Z,223.07
2018-10-06T04:30:52.889Z,217.87
2018-10-06T04:33:21.778Z,218.40
2018-10-06T04:35:50.553Z,213.22
2018-10-06T04:38:19.343Z,228.25
2018-10-06T04:40:48.155Z,229.72
2018-10-06T04:43:17.138Z,217.35
2018-10-06T04:45:45.922Z,216.75
2018-10-06T04:48:14.612Z,218.10
2018-10-06T04:50:43.844Z,210.65
2018-10-06T04:53:12.716Z,232.00
2018-10-06T04:55:41.392Z,285.85
2018-10-06T04:58:10.210Z,222.98
2018-10-06T05:00:39.078Z,222.02
2018-10-06T05:03:08.044Z,220.10
2018-10-06T05:05:36.790Z,217.50
2018-10-06T05:08:05.708Z,220.70
2018-10-06T05:10:34.719Z,211.30
2018-10-06T05:13:03.443Z,223.55
2018-10-06T05:15:32.256Z,215.62
2018-10-06T05:18:00.997Z,213.57
2018-10-06T05:20:29.980Z,219.70
2018-10-06T05:22:58.824Z,212.82
2018-10-06T05:25:28.455Z,215.18
2018-10-06T05:27:57.108Z,209.60
2018-10-06T05:30:26.602Z,214.80
2018-10-06T05:32:55.275Z,211.65
2018-10-06T05:35:23.971Z,208.17
2018-10-06T05:37:52.972Z,204.53
2018-10-06T05:40:21.621Z,214.20
2018-10-06T05:42:50.277Z,209.20
2018-10-06T05:45:19.039Z,210.43
2018-10-06T05:47:47.891Z,222.12
2018-10-06T05:50:16.528Z,214.30
2018-10-06T05:52:46.008Z,211.37
2018-10-06T05:55:14.860Z,211.03
2018-10-06T05:57:43.769Z,215.18
2018-10-06T06:00:12.811Z,221.32
2018-10-06T06:02:41.549Z,216.78
2018-10-06T06:05:13.552Z,223.15
2018-10-06T06:07:43.735Z,213.35
2018-10-06T06:10:12.914Z,218.33
2018-10-06T06:12:42.270Z,221.35
2018-10-06T06:15:11.754Z,213.80
2018-10-06T06:17:40.743Z,231.78
2018-10-06T06:20:10.041Z,230.30
2018-10-06T06:22:39.546Z,213.22
2018-10-06T06:25:08.799Z,212.75
2018-10-06T06:27:37.518Z,228.20
2018-10-06T06:30:06.999Z,252.00
2018-10-06T06:32:35.984Z,216.60
2018-10-06T06:35:04.837Z,226.70
2018-10-06T06:37:33.621Z,220.42
2018-10-06T06:40:02.830Z,225.45
2018-10-06T06:42:32.204Z,244.82
2018-10-06T06:45:01.202Z,230.52
2018-10-06T06:47:30.060Z,226.58
2018-10-06T06:49:58.863Z,213.15
2018-10-06T06:52:27.943Z,231.80
2018-10-06T06:54:56.692Z,222.60
2018-10-06T06:57:25.537Z,220.10
2018-10-06T06:59:54.219Z,219.77
2018-10-06T07:02:23.189Z,226.30
2018-10-06T07:04:52.064Z,235.45
2018-10-06T07:07:20.815Z,237.10
2018-10-06T07:09:49.309Z,237.57
2018-10-06T07:12:18.236Z,221.85
2018-10-06T07:14:47.233Z,228.07
2018-10-06T07:17:16.139Z,235.53
2018-10-06T07:22:36.688Z,224.30
2018-10-06T07:25:08.599Z,236.95
2018-10-06T07:27:37.441Z,231.17
2018-10-06T07:30:06.890Z,232.85
2018-10-06T07:32:37.027Z,231.13
2018-10-06T07:35:06.105Z,231.50
2018-10-06T07:37:34.903Z,244.60
2018-10-06T07:40:05.852Z,254.10
2018-10-06T07:42:35.243Z,268.00
2018-10-06T07:45:04.305Z,250.57
2018-10-06T07:47:33.484Z,232.57
2018-10-06T07:50:02.883Z,241.88
2018-10-06T07:52:32.684Z,239.20
2018-10-06T07:55:02.053Z,248.40
2018-10-06T07:57:31.296Z,264.90
2018-10-06T08:00:00.369Z,245.50
2018-10-06T08:02:30.530Z,257.98
2018-10-06T08:05:02.387Z,256.15
2018-10-06T08:07:32.472Z,280.12
2018-10-06T08:10:03.198Z,266.42
2018-10-06T08:12:33.193Z,264.32
2018-10-06T08:15:02.500Z,264.57
2018-10-06T08:17:34.335Z,286.62
2018-10-06T08:20:04.433Z,280.87
2018-10-06T08:22:34.145Z,285.85
2018-10-06T08:25:04.959Z,270.48
2018-10-06T08:27:34.608Z,254.20
2018-10-06T08:30:04.012Z,264.80
2018-10-06T08:32:34.170Z,272.05
2018-10-06T08:35:03.462Z,269.30
2018-10-06T08:37:32.551Z,270.00
2018-10-06T08:40:02.601Z,285.02
2018-10-06T08:42:31.877Z,280.85
2018-10-06T08:45:01.296Z,317.48
2018-10-06T08:47:30.474Z,310.95
2018-10-06T08:49:59.783Z,313.77
2018-10-06T08:52:28.884Z,330.70
2018-10-06T08:54:58.030Z,324.02
2018-10-06T08:57:28.533Z,301.82
2018-10-06T08:59:58.016Z,314.48
2018-10-06T09:02:28.671Z,299.20
2018-10-06T09:04:59.089Z,313.32
2018-10-06T09:07:28.460Z,303.02
2018-10-06T09:09:57.911Z,340.43
2018-10-06T09:12:27.530Z,293.15
2018-10-06T09:14:58.498Z,328.70
2018-10-06T09:17:29.598Z,375.65
2018-10-06T09:19:59.915Z,331.80
2018-10-06T09:22:28.899Z,337.55
2018-10-06T09:24:59.079Z,324.92
2018-10-06T09:30:18.923Z,373.45
2018-10-06T09:32:48.681Z,351.27
2018-10-06T09:35:18.339Z,376.40
2018-10-06T09:37:47.850Z,355.15
2018-10-06T09:40:17.201Z,412.52
2018-10-06T09:42:46.900Z,366.80
2018-10-06T09:45:16.321Z,386.60
2018-10-06T09:47:45.533Z,407.90
2018-10-06T09:50:15.384Z,436.82
2018-10-06T09:52:46.010Z,455.13
2018-10-06T09:55:15.364Z,525.27
2018-10-06T09:57:44.514Z,611.20
2018-10-06T10:00:14.493Z,662.48
2018-10-06T10:02:48.799Z,665.98
2018-10-06T10:05:25.361Z,610.00
2018-10-06T10:07:54.846Z,568.45
2018-10-06T10:10:24.114Z,482.40
2018-10-06T10:12:53.373Z,490.50
2018-10-06T10:15:22.423Z,547.08
2018-10-06T10:17:51.215Z,538.40
2018-10-06T10:20:20.357Z,493.85
2018-10-06T10:22:51.172Z,459.75
2018-10-06T10:25:20.100Z,477.07
2018-10-06T10:27:49.195Z,449.48
2018-10-06T10:30:18.339Z,455.95
2018-10-06T10:32:47.460Z,464.50
2018-10-06T10:35:16.410Z,438.55
2018-10-06T10:37:45.281Z,444.85
2018-10-06T10:40:14.546Z,430.10
2018-10-06T10:42:43.304Z,431.60
2018-10-06T10:45:14.477Z,409.22
2018-10-06T10:47:44.728Z,391.42
2018-10-06T10:50:14.658Z,459.70
2018-10-06T10:52:44.375Z,455.60
2018-10-06T10:55:15.356Z,525.62
2018-10-06T10:57:45.229Z,490.62
2018-10-06T11:00:14.324Z,519.67
2018-10-06T11:02:43.623Z,470.52
2018-10-06T11:05:13.071Z,471.77
2018-10-06T11:07:42.574Z,527.97
2018-10-06T11:10:11.382Z,529.08
2018-10-06T11:12:40.543Z,622.70
2018-10-06T11:15:11.006Z,602.13
2018-10-06T11:17:41.399Z,552.73
2018-10-06T11:20:10.570Z,547.20
2018-10-06T11:22:39.921Z,499.75
2018-10-06T11:25:08.840Z,514.08
2018-10-06T11:27:38.176Z,508.07
2018-10-06T11:30:08.327Z,549.33
2018-10-06T11:32:37.495Z,516.10
2018-10-06T11:35:07.159Z,495.70
2018-10-06T11:37:36.477Z,470.35
2018-10-06T11:40:05.814Z,431.50
2018-10-06T11:42:35.377Z,466.18
2018-10-06T11:45:05.407Z,477.23
2018-10-06T11:47:34.177Z,501.57
2018-10-06T11:50:03.413Z,481.80
2018-10-06T11:52:32.886Z,519.73
2018-10-06T11:55:02.859Z,506.95
2018-10-06T11:57:31.801Z,512.15
2018-10-06T12:00:01.727Z,575.72
2018-10-06T12:02:31.119Z,534.40
2018-10-06T12:05:00.605Z,557.23
2018-10-06T12:07:29.637Z,577.60
2018-10-06T12:09:58.542Z,568.67
2018-10-06T12:12:31.450Z,551.20
2018-10-06T12:15:01.375Z,572.80
2018-10-06T12:17:30.642Z,593.63
2018-10-06T12:20:01.694Z,574.98
2018-10-06T12:22:33.365Z,555.37
2018-10-06T12:25:04.755Z,527.35
2018-10-06T12:27:33.640Z,523.05
2018-10-06T12:30:02.915Z,525.98
2018-10-06T12:32:32.439Z,541.80
2018-10-06T12:35:03.009Z,518.97
2018-10-06T12:37:34.070Z,486.90
2018-10-06T12:40:07.089Z,509.25
2018-10-06T12:42:37.766Z,546.25
2018-10-06T12:45:08.503Z,491.32
2018-10-06T12:47:38.178Z,474.88
2018-10-06T12:50:07.361Z,546.37
2018-10-06T12:52:36.861Z,566.12
2018-10-06T12:55:12.730Z,526.10
2018-10-06T12:57:44.477Z,509.55
2018-10-06T13:00:14.761Z,482.43
2018-10-06T13:02:45.758Z,514.85
2018-10-06T13:05:16.275Z,501.70
2018-10-06T13:07:45.151Z,533.65
2018-10-06T13:10:14.825Z,510.23
2018-10-06T13:15:22.467Z,461.88
2018-10-06T13:20:42.371Z,538.45
2018-10-06T13:23:11.666Z,579.10
2018-10-06T13:25:43.349Z,571.98
2018-10-06T13:28:12.671Z,632.38
2018-10-06T13:30:42.548Z,692.05
2018-10-06T13:33:11.472Z,689.15
2018-10-06T13:35:40.686Z,726.10
2018-10-06T13:38:09.603Z,700.42
2018-10-06T13:40:38.445Z,759.73
2018-10-06T13:43:07.405Z,690.62
2018-10-06T13:45:36.419Z,701.95
2018-10-06T13:48:05.273Z,769.55
2018-10-06T13:50:34.703Z,680.70
2018-10-06T13:53:03.728Z,730.95
2018-10-06T13:55:32.538Z,786.85
2018-10-06T13:58:01.490Z,736.08
2018-10-06T14:00:30.616Z,758.87
2018-10-06T14:03:01.761Z,712.88
2018-10-06T14:05:31.897Z,714.80
2018-10-06T14:08:07.312Z,667.95
2018-10-06T14:10:37.885Z,641.85
2018-10-06T14:13:08.913Z,677.15
2018-10-06T14:15:42.248Z,676.73
2018-10-06T14:18:14.869Z,631.70
2018-10-06T14:20:46.001Z,613.15
2018-10-06T14:23:18.518Z,605.48
2018-10-06T14:25:48.295Z,556.97
2018-10-06T14:28:17.828Z,544.33
2018-10-06T14:30:47.199Z,543.48
2018-10-06T14:33:16.393Z,532.65
2018-10-06T14:35:45.336Z,478.73
2018-10-06T14:38:14.519Z,531.87
2018-10-06T14:40:43.687Z,550.02
2018-10-06T14:43:13.256Z,555.52
2018-10-06T14:45:42.375Z,548.65
2018-10-06T14:48:11.276Z,558.15
2018-10-06T14:50:40.762Z,510.90
2018-10-06T14:53:10.184Z,489.97
2018-10-06T14:55:40.396Z,465.43
2018-10-06T14:58:13.396Z,475.90
2018-10-06T15:00:42.518Z,504.23
2018-10-06T15:03:13.638Z,478.65
2018-10-06T15:05:44.678Z,481.17
2018-10-06T15:08:16.615Z,475.70
2018-10-06T15:10:48.688Z,431.70
2018-10-06T15:13:22.483Z,444.60
2018-10-06T15:15:55.802Z,463.75
2018-10-06T15:18:26.571Z,458.18
2018-10-06T15:20:59.598Z,427.23
2018-10-06T15:23:30.848Z,472.35
2018-10-06T15:26:01.411Z,437.10
2018-10-06T15:28:30.631Z,486.23
2018-10-06T15:31:02.119Z,440.47
2018-10-06T15:33:31.373Z,459.57
2018-10-06T15:36:02.024Z,464.05
2018-10-06T15:38:31.428Z,452.20
2018-10-06T15:41:02.028Z,415.08
2018-10-06T15:43:32.082Z,459.57
2018-10-06T15:46:02.913Z,456.70
2018-10-06T15:53:32.773Z,715.62
2018-10-06T15:56:04.060Z,543.63
2018-10-06T15:58:35.442Z,542.72
2018-10-06T16:01:05.752Z,509.93
2018-10-06T16:03:37.076Z,399.45
2018-10-06T16:06:07.388Z,453.10
2018-10-06T16:08:37.477Z,491.08
2018-10-06T16:11:10.115Z,404.35
2018-10-06T16:13:40.720Z,386.02
2018-10-06T16:16:18.776Z,409.85
2018-10-06T16:18:52.457Z,507.50
2018-10-06T16:21:30.628Z,376.12
2018-10-06T16:24:07.467Z,468.97
2018-10-06T16:26:43.255Z,515.52
2018-10-06T16:29:14.245Z,493.97
2018-10-06T16:31:48.433Z,383.40
2018-10-06T16:34:19.601Z,372.75
2018-10-06T16:36:52.169Z,350.75
2018-10-06T16:39:24.110Z,395.57
2018-10-06T16:41:56.438Z,415.80
2018-10-06T16:44:26.984Z,414.27
2018-10-06T16:46:57.303Z,425.45
2018-10-06T16:49:28.482Z,374.42
2018-10-06T16:51:58.741Z,408.77
2018-10-06T16:54:29.561Z,428.30
2018-10-06T16:57:02.045Z,391.45
2018-10-06T16:59:33.766Z,426.18
2018-10-06T17:02:05.368Z,412.90
2018-10-06T17:04:36.746Z,377.57
2018-10-06T17:07:07.530Z,392.02
2018-10-06T17:09:38.206Z,360.80
2018-10-06T17:12:09.461Z,363.23
2018-10-06T17:14:43.280Z,345.65
2018-10-06T17:17:15.947Z,437.98
2018-10-06T17:19:46.178Z,437.68
2018-10-06T17:22:15.544Z,378.00
2018-10-06T17:24:47.306Z,386.90
2018-10-06T17:27:17.648Z,356.82
2018-10-06T17:29:48.241Z,337.15
2018-10-06T17:32:19.957Z,330.05
2018-10-06T17:34:50.615Z,360.55
2018-10-06T17:37:21.752Z,331.20
2018-10-06T17:39:51.721Z,358.55
2018-10-06T17:42:21.494Z,333.30
2018-10-06T17:44:52.153Z,291.57
2018-10-06T17:47:23.363Z,333.25
2018-10-06T17:49:55.999Z,349.00
2018-10-06T17:52:26.671Z,330.65
2018-10-06T17:54:57.699Z,355.02
2018-10-06T17:57:28.410Z,336.82
2018-10-06T18:00:02.269Z,345.40
2018-10-06T18:02:33.033Z,367.37
2018-10-06T18:05:05.985Z,374.45
2018-10-06T18:07:37.032Z,342.90
2018-10-06T18:10:08.314Z,367.68
2018-10-06T18:12:39.692Z,348.05
2018-10-06T18:15:12.489Z,324.73
2018-10-06T18:17:41.892Z,323.48
2018-10-06T18:20:11.244Z,310.13
2018-10-06T18:22:41.637Z,333.35
2018-10-06T18:25:12.068Z,337.57
2018-10-06T18:27:43.276Z,298.07
2018-10-06T18:30:14.592Z,327.57
2018-10-06T18:32:46.506Z,328.20
2018-10-06T18:35:25.485Z,317.45
2018-10-06T18:37:56.634Z,312.88
2018-10-06T18:40:27.278Z,327.93
2018-10-06T18:42:58.065Z,333.27
2018-10-06T18:45:28.388Z,363.35
2018-10-06T18:48:00.557Z,346.00
2018-10-06T18:50:34.686Z,326.98
2018-10-06T18:53:07.810Z,329.87
2018-10-06T18:55:38.321Z,334.30
2018-10-06T18:58:08.071Z,329.50
2018-10-06T19:00:37.987Z,299.55
2018-10-06T19:03:10.359Z,324.37
2018-10-06T19:05:45.612Z,298.20
2018-10-06T19:08:18.096Z,335.50
2018-10-06T19:10:49.295Z,333.77
2018-10-06T19:13:20.076Z,308.80
2018-10-06T19:15:52.890Z,338.62
2018-10-06T19:18:28.585Z,375.82
2018-10-06T19:21:00.701Z,351.23
2018-10-06T19:23:31.921Z,331.85
2018-10-06T19:26:04.284Z,309.48
2018-10-06T19:28:34.085Z,327.55
2018-10-06T19:33:52.369Z,310.32
2018-10-06T19:36:24.471Z,331.95
2018-10-06T19:38:56.004Z,315.05
2018-10-06T19:41:27.204Z,311.92
2018-10-06T19:43:58.220Z,323.77
2018-10-06T19:46:30.557Z,341.08
2018-10-06T19:49:02.131Z,332.05
2018-10-06T19:51:32.968Z,322.05
2018-10-06T19:54:06.422Z,327.22
2018-10-06T19:56:39.015Z,360.50
2018-10-06T19:59:09.370Z,299.62
2018-10-06T20:01:41.736Z,354.73
2018-10-06T20:04:11.281Z,304.38
2018-10-06T20:06:42.300Z,325.27
2018-10-06T20:09:11.983Z,304.77
2018-10-06T20:11:42.658Z,324.90
2018-10-06T20:14:13.095Z,327.05
2018-10-06T20:16:43.081Z,353.05
2018-10-06T20:19:13.866Z,527.20
2018-10-06T20:21:43.245Z,322.93
2018-10-06T20:24:14.834Z,275.30
2018-10-06T20:26:48.091Z,296.40
2018-10-06T20:29:19.012Z,317.35
2018-10-06T20:31:49.480Z,427.55
2018-10-06T20:34:20.011Z,434.45
2018-10-06T20:36:49.658Z,262.12
2018-10-06T20:39:19.839Z,253.95
2018-10-06T20:41:49.674Z,252.18
2018-10-06T20:44:19.588Z,264.63
2018-10-06T20:46:49.677Z,252.22
2018-10-06T20:49:18.959Z,258.38
2018-10-06T20:51:48.377Z,260.25
2018-10-06T20:54:17.531Z,246.82
2018-10-06T20:56:47.286Z,253.37
2018-10-06T20:59:17.562Z,253.20
2018-10-06T21:01:46.893Z,271.18
2018-10-06T21:04:16.409Z,256.40
2018-10-06T21:06:45.676Z,263.48
2018-10-06T21:09:14.583Z,256.20
2018-10-06T21:11:44.273Z,274.40
2018-10-06T21:14:13.714Z,271.57
2018-10-06T21:16:43.149Z,270.57
2018-10-06T21:19:13.372Z,273.48
2018-10-06T21:21:43.520Z,296.60
2018-10-06T21:24:14.127Z,291.17
2018-10-06T21:26:44.529Z,267.65
2018-10-06T21:29:17.389Z,320.10
2018-10-06T21:31:46.450Z,284.57
2018-10-06T21:34:15.228Z,322.75
2018-10-06T21:36:43.982Z,323.40
2018-10-06T21:39:13.442Z,294.07
2018-10-06T21:41:42.153Z,367.95
2018-10-06T21:44:10.943Z,284.55
2018-10-06T21:46:40.155Z,286.48
2018-10-06T21:49:08.995Z,298.48
2018-10-06T21:51:37.655Z,287.60
2018-10-06T21:54:06.423Z,282.85
2018-10-06T21:56:35.216Z,289.27
2018-10-06T21:59:04.145Z,289.70
2018-10-06T22:01:35.276Z,522.45
2018-10-06T22:04:04.826Z,327.32
2018-10-06T22:06:34.766Z,279.57
2018-10-06T22:09:05.199Z,253.30
2018-10-06T22:11:34.731Z,252.62
2018-10-06T22:14:03.329Z,273.75
2018-10-06T22:16:32.314Z,280.40
2018-10-06T22:19:01.609Z,266.12
2018-10-06T22:21:30.687Z,263.95
2018-10-06T22:24:01.533Z,394.82
2018-10-06T22:26:33.337Z,370.02
2018-10-06T22:29:03.124Z,379.55
2018-10-06T22:31:32.119Z,388.85
2018-10-06T22:34:01.204Z,424.92
2018-10-06T22:36:30.225Z,319.23
2018-10-06T22:38:59.613Z,273.02
2018-10-06T22:41:28.562Z,265.95
2018-10-06T22:43:57.504Z,310.77
2018-10-06T22:46:26.546Z,306.43
2018-10-06T22:48:55.464Z,301.80
2018-10-06T22:51:24.312Z,291.98
2018-10-06T22:53:52.966Z,267.62
2018-10-06T22:56:21.797Z,287.23
2018-10-06T22:58:50.571Z,274.75
2018-10-06T23:01:19.738Z,266.42
2018-10-06T23:03:48.424Z,260.02
2018-10-06T23:06:17.235Z,248.35
2018-10-06T23:08:46.457Z,246.68
2018-10-06T23:11:16.431Z,261.68
2018-10-06T23:13:45.165Z,231.15
2018-10-06T23:16:15.961Z,256.68
2018-10-06T23:18:44.985Z,256.98
2018-10-06T23:21:14.093Z,259.10
2018-10-06T23:23:42.832Z,242.28
2018-10-06T23:29:00.361Z,258.13
2018-10-06T23:31:29.226Z,236.65
2018-10-06T23:33:59.318Z,243.00
2018-10-06T23:36:28.308Z,230.10
2018-10-06T23:38:57.385Z,232.50
2018-10-06T23:41:26.481Z,240.82
2018-10-06T23:43:55.640Z,247.55
2018-10-06T23:46:24.234Z,233.30
2018-10-06T23:48:53.179Z,235.53
2018-10-06T23:51:22.081Z,232.65
2018-10-06T23:53:51.610Z,232.32
2018-10-06T23:56:20.354Z,237.15
2018-10-06T23:58:49.001Z,224.62
